Terminal Aerodrome Forecast
Issued by NWS Jackson, MS

Home | Current Version | Previous Version | Text Only | Print | Product List | Glossary On
Versions: 1 2 3 4 5 6 7 8 9 10 11 12 13 14 15 16 17 18
135
FTUS44 KJAN 230852 AAC
TAFJAN
TAF AMD
KJAN 230852Z 2309/2406 00000KT 4SM BR FEW015 SCT250
     FM231100 00000KT 1/4SM FG BKN003 BKN250
     FM231400 15004KT 3SM BR FEW008 SCT250
     FM231600 17007KT P6SM FEW090 SCT250=

USA.gov is the U.S. government's official web portal to all federal, state and local government web resources and services.